Airfield :
LOGIN :

Register | Disclaimer

   EN    FR    IT 

 










Legend :    VFR   Marginal VFR   IFR   Intensive IFR   Very Intensive IFR
Visi :
Ceiling :
>= 8 km
>= 3000ft
5 to 8 km
1000 to 3000 ft
1500m to 5 km
500 to 1000 ft
800 to 1500m
200 to 500 ft
< 800m
< 200 ft
Symbols :   Thunderstorms  Fog  Heavy snow  Heavy precipitations  Wind > 20 kt
SIGMETs :     Misc.  Thunderstorms  Icing  Turbulence  Mountain Waves  Volcanic Ashes







- Airport Elevation : 7 ft
- IATA code : VCE


LIPZ - Marco Polo Int. Venezia

CURRENT METAR :
  • 252120Z 27003KT 220V320 CAVOK 11/11 Q1017 NOSIG

EXPIRED METARs :
  • 252050Z VRB01KT CAVOK 13/11 Q1017 NOSIG
  • 252020Z VRB01KT CAVOK 14/12 Q1017 NOSIG
  • 251950Z 12003KT CAVOK 14/12 Q1017 NOSIG
  • 251920Z 13005KT CAVOK 13/11 Q1017 NOSIG
  • 251850Z 12006KT CAVOK 14/12 Q1017 NOSIG

TAF TAF LIPZ
Valid from the 25 at 18:00 until the 27 at 00:00 UTC


251700Z 2518/2624 VRB05KT 9999 FEW030
TEMPO 2520/2603 RA
BECMG 2610/2612 07010KT
TEMPO 2612/2618 RA
No reported NOTAMs for that airfield.
1 SIGMET reported for the Milano FIR (LIMM) :
 
Embedded thunderstorms
LIMM SIGMET 4 VALID 252115/252315 LIMM- LIMM MILANO FIR EMBD TS OBS WI N4605 E00806 - N4553 E00748 - N4506 E00836 - N4431 E01030 - N4453 E01105 - N4600 E00858 - N4551 E00855 - N4605 E00847 - N4617 E00826 - N4627 E00825 - N4617 E00810 - N4605 E00806 CB TOP AT FL280 STNR NC=



MET'MAP, your aeronautical weather chart ! - Copyright ORBIFLY December 2007 - Disclaimer

ORBIFLY MET'MAP TEAM :

Programming & Development : Alexandra Zaïnal
Concept & Development : Baudouin d'Aumeries
Co-Development & Prog : Marc-Olivier Méhu
Technical & hardware support : Manuel Goepfert

Contact : metmap@orbifly.com




SOURCES & CREDITS :

   NOAA